Time;durP1;ratioP1;P1;durP2;ratioP2;P2;SDS_P1;SDS_P2;PMS_P1;PMS_P2;Temp;Humidity;BMP_temperature;BMP_pressure;BME280_temperature;BME280_humidity;BME280_pressure;Samples;Min_cycle;Max_cycle;Signal;HPM_P1;HPM_P2
2023/10/09 00:01:38;;;;;;;39.75;19.73;;;0.70;99.90;;;;;;5054988;28;20024;-79
2023/10/09 00:04:04;;;;;;;38.88;19.35;;;0.70;99.90;;;;;;5053075;28;20032;-79
2023/10/09 00:06:38;;;;;;;35.08;19.13;;;0.70;99.90;;;;;;5066624;28;20013;-81
2023/10/09 00:11:54;;;;;;;35.15;18.25;;;0.60;99.90;;;;;;5055115;28;20071;-81
2023/10/09 00:14:19;;;;;;;35.53;18.38;;;0.50;99.90;;;;;;5064103;28;20024;-81
2023/10/09 00:17:01;;;;;;;41.80;20.98;;;0.60;99.90;;;;;;5044256;28;20107;-80
2023/10/09 00:19:33;;;;;;;38.33;20.07;;;0.50;99.90;;;;;;5055167;28;20029;-79
2023/10/09 00:22:04;;;;;;;38.83;19.35;;;0.60;99.90;;;;;;5053767;28;20294;-81
2023/10/09 00:24:32;;;;;;;39.95;18.67;;;0.60;99.90;;;;;;5053578;28;20021;-79
2023/10/09 00:27:16;;;;;;;45.75;21.67;;;0.60;99.90;;;;;;5059985;28;20099;-79
2023/10/09 00:29:45;;;;;;;35.97;18.02;;;0.60;99.90;;;;;;5060920;28;20143;-80
2023/10/09 00:32:27;;;;;;;30.98;16.52;;;0.60;99.90;;;;;;5055537;28;20029;-79
2023/10/09 00:34:59;;;;;;;34.15;18.02;;;0.60;99.90;;;;;;5054095;28;20437;-81
2023/10/09 00:37:33;;;;;;;37.80;17.05;;;0.60;99.90;;;;;;5070282;28;20020;-81
2023/10/09 00:39:59;;;;;;;34.35;16.55;;;0.60;99.90;;;;;;5055625;28;21491;-80
2023/10/09 00:42:29;;;;;;;29.75;15.65;;;0.60;99.90;;;;;;5053682;28;20147;-80
2023/10/09 00:45:07;;;;;;;30.98;15.68;;;0.60;99.90;;;;;;5053184;28;20020;-80
2023/10/09 00:47:34;;;;;;;22.02;10.90;;;0.60;99.90;;;;;;5054008;28;20066;-80
2023/10/09 00:52:50;;;;;;;26.23;12.93;;;0.60;99.90;;;;;;5064290;28;20055;-80
2023/10/09 00:55:36;;;;;;;26.95;12.10;;;0.60;99.90;;;;;;5041087;28;20017;-81
2023/10/09 00:58:06;;;;;;;24.48;12.60;;;0.60;99.90;;;;;;5054532;28;20025;-82
2023/10/09 01:03:22;;;;;;;25.65;13.23;;;0.50;99.90;;;;;;5054902;28;20024;-81
2023/10/09 01:11:09;;;;;;;30.98;15.25;;;0.50;99.90;;;;;;5055024;28;20108;-81
2023/10/09 01:13:52;;;;;;;29.42;14.98;;;0.50;99.90;;;;;;5054374;28;20041;-80
2023/10/09 01:16:22;;;;;;;18.00;10.63;;;0.50;99.90;;;;;;5059924;28;20067;-81
2023/10/09 01:18:50;;;;;;;24.45;12.35;;;0.50;99.90;;;;;;5059642;28;20052;-80
2023/10/09 01:21:24;;;;;;;30.42;15.65;;;0.40;99.90;;;;;;5053911;28;20017;-81
2023/10/09 01:26:44;;;;;;;30.52;16.27;;;0.40;99.90;;;;;;5051752;28;20032;-81
2023/10/09 01:29:20;;;;;;;33.77;16.20;;;0.30;99.90;;;;;;5054260;28;20046;-81
2023/10/09 01:31:56;;;;;;;28.02;15.77;;;0.30;99.90;;;;;;5053188;28;20345;-80
2023/10/09 01:34:42;;;;;;;31.33;16.13;;;0.20;99.90;;;;;;5053611;28;20036;-80
2023/10/09 01:37:15;;;;;;;26.10;14.55;;;0.20;99.90;;;;;;5052100;28;20013;-79
2023/10/09 01:39:42;;;;;;;21.92;12.07;;;0.20;99.90;;;;;;5057484;28;20039;-80
2023/10/09 01:42:08;;;;;;;25.25;14.43;;;0.20;99.90;;;;;;5063893;28;20025;-80
2023/10/09 01:44:34;;;;;;;26.02;13.98;;;0.30;99.90;;;;;;5066201;28;20527;-80
2023/10/09 01:47:07;;;;;;;25.63;14.20;;;0.20;99.90;;;;;;5055721;28;20024;-80
2023/10/09 01:49:49;;;;;;;24.63;13.65;;;0.20;99.90;;;;;;5057023;28;20386;-79
2023/10/09 01:52:18;;;;;;;28.30;13.77;;;0.20;99.90;;;;;;5059056;28;20124;-80
2023/10/09 01:54:50;;;;;;;22.88;12.70;;;0.20;99.90;;;;;;5070039;28;20055;-81
2023/10/09 01:57:25;;;;;;;24.77;12.05;;;0.10;99.90;;;;;;5064859;28;20021;-82
2023/10/09 01:59:53;;;;;;;22.60;12.90;;;0.20;99.90;;;;;;5058072;28;20115;-81
2023/10/09 02:02:26;;;;;;;27.50;13.90;;;0.20;99.90;;;;;;5055003;28;20043;-81
2023/10/09 02:07:51;;;;;;;21.15;12.90;;;0.30;99.90;;;;;;5059772;28;20116;-79
2023/10/09 02:13:06;;;;;;;19.75;9.55;;;0.30;99.90;;;;;;5055518;28;20067;-79
2023/10/09 02:18:58;;;;;;;15.88;9.18;;;0.40;99.90;;;;;;5057249;28;20028;-81
2023/10/09 02:23:49;;;;;;;18.88;11.43;;;0.40;99.90;;;;;;5058873;28;20116;-81
2023/10/09 02:26:26;;;;;;;19.80;10.63;;;0.30;99.90;;;;;;5056299;28;20025;-80
2023/10/09 02:29:16;;;;;;;21.50;12.35;;;0.40;99.90;;;;;;5054936;28;20124;-81
2023/10/09 02:31:47;;;;;;;24.65;12.38;;;0.40;99.90;;;;;;5059981;28;20049;-80
2023/10/09 02:34:15;;;;;;;19.67;11.15;;;0.40;99.90;;;;;;5070973;28;20033;-80
2023/10/09 02:36:49;;;;;;;15.35;9.27;;;0.40;99.90;;;;;;5071943;28;20461;-79
2023/10/09 02:39:52;;;;;;;21.27;10.45;;;0.50;99.90;;;;;;5070841;28;20033;-79
2023/10/09 02:44:50;;;;;;;22.15;12.57;;;0.60;99.90;;;;;;5071988;28;20039;-79
2023/10/09 02:47:38;;;;;;;20.15;11.05;;;0.60;99.90;;;;;;5071248;28;20029;-79
2023/10/09 02:50:19;;;;;;;22.65;11.57;;;0.60;99.90;;;;;;5069844;28;20028;-79
2023/10/09 02:52:47;;;;;;;17.50;11.02;;;0.50;99.90;;;;;;5070924;28;20047;-79
2023/10/09 02:55:25;;;;;;;23.35;12.00;;;0.50;99.90;;;;;;5045285;28;20048;-81
2023/10/09 02:57:56;;;;;;;19.50;10.70;;;0.50;99.90;;;;;;5069453;28;20433;-81
2023/10/09 03:00:29;;;;;;;20.50;10.70;;;0.50;99.90;;;;;;5070084;28;20434;-79
2023/10/09 03:02:58;;;;;;;17.52;11.95;;;0.60;99.90;;;;;;5050355;28;20025;-81
2023/10/09 03:05:27;;;;;;;20.20;11.85;;;0.60;99.90;;;;;;5064264;28;20017;-81
2023/10/09 03:07:55;;;;;;;20.80;12.57;;;0.70;99.90;;;;;;5066757;28;20017;-79
2023/10/09 03:10:25;;;;;;;19.05;10.25;;;0.70;99.90;;;;;;5069296;28;20021;-81
2023/10/09 03:12:53;;;;;;;21.20;11.57;;;0.70;99.90;;;;;;5069199;28;20040;-80
2023/10/09 03:15:21;;;;;;;18.92;10.95;;;0.80;99.90;;;;;;5070860;28;20032;-81
2023/10/09 03:17:48;;;;;;;20.05;10.43;;;0.80;99.90;;;;;;5056885;28;20367;-79
2023/10/09 03:20:14;;;;;;;24.70;10.63;;;0.90;99.90;;;;;;5069606;28;20136;-80
2023/10/09 03:22:41;;;;;;;24.92;12.30;;;0.90;99.90;;;;;;5051892;28;20108;-78
2023/10/09 03:25:42;;;;;;;21.35;11.57;;;0.90;99.90;;;;;;5046742;28;20120;-79
2023/10/09 03:28:00;;;;;;;19.73;10.45;;;0.90;99.90;;;;;;5050809;28;20395;-79
2023/10/09 03:30:26;;;;;;;26.55;12.60;;;1.00;99.90;;;;;;5052957;28;20056;-78
2023/10/09 03:32:52;;;;;;;26.60;14.50;;;1.00;99.90;;;;;;5054228;28;20036;-81
2023/10/09 03:35:27;;;;;;;30.70;15.43;;;1.00;99.90;;;;;;5057268;28;20039;-79
2023/10/09 03:38:11;;;;;;;23.95;14.63;;;1.00;99.90;;;;;;5073818;28;20086;-81
2023/10/09 03:40:42;;;;;;;29.08;14.23;;;1.00;99.90;;;;;;5071409;28;20159;-78
2023/10/09 03:43:11;;;;;;;30.35;15.93;;;1.00;99.90;;;;;;5046290;28;20030;-79
2023/10/09 03:45:45;;;;;;;26.10;13.15;;;1.00;99.90;;;;;;5073165;28;20100;-78
2023/10/09 03:48:46;;;;;;;26.70;14.07;;;1.10;99.90;;;;;;5072806;28;20381;-81
2023/10/09 03:51:09;;;;;;;23.05;13.02;;;1.10;99.90;;;;;;5063472;28;20033;-79
2023/10/09 03:53:39;;;;;;;21.70;12.57;;;1.10;99.90;;;;;;5068437;28;20037;-79
2023/10/09 03:56:11;;;;;;;22.38;12.07;;;1.20;99.90;;;;;;5056952;28;20298;-80
2023/10/09 03:58:58;;;;;;;25.30;12.88;;;1.20;99.90;;;;;;5056602;28;20017;-80
2023/10/09 04:01:31;;;;;;;17.85;11.52;;;1.30;99.90;;;;;;5085965;28;20050;-80
2023/10/09 04:04:02;;;;;;;19.00;10.80;;;1.20;99.90;;;;;;5061889;28;20545;-79
2023/10/09 04:06:32;;;;;;;20.20;11.23;;;1.20;99.90;;;;;;5056523;28;20021;-79
2023/10/09 04:14:35;;;;;;;19.00;10.88;;;1.30;99.90;;;;;;5070986;28;20102;-79
2023/10/09 04:17:05;;;;;;;21.80;11.27;;;1.30;99.90;;;;;;5064506;28;20025;-79
2023/10/09 04:19:38;;;;;;;21.60;11.00;;;1.40;99.90;;;;;;5056744;28;20020;-81
2023/10/09 04:22:07;;;;;;;18.30;10.70;;;1.50;99.90;;;;;;5071834;28;20035;-80
2023/10/09 04:24:41;;;;;;;23.33;11.15;;;1.50;99.90;;;;;;5073314;28;20012;-81
2023/10/09 04:27:08;;;;;;;19.08;10.82;;;1.50;99.90;;;;;;5071853;28;20404;-79
2023/10/09 04:29:47;;;;;;;20.67;12.07;;;1.60;99.90;;;;;;5062892;28;20029;-79
2023/10/09 04:32:18;;;;;;;22.23;11.90;;;1.50;99.90;;;;;;5069628;28;20067;-80
2023/10/09 04:34:56;;;;;;;22.67;12.55;;;1.60;99.90;;;;;;5060507;28;20029;-79
2023/10/09 04:37:44;;;;;;;20.98;12.23;;;1.60;99.90;;;;;;5040136;28;20021;-79
2023/10/09 04:40:40;;;;;;;23.67;12.48;;;1.60;99.90;;;;;;5047594;28;20021;-79
2023/10/09 04:42:58;;;;;;;25.50;13.60;;;1.60;99.90;;;;;;5048107;28;20479;-79
2023/10/09 04:48:10;;;;;;;22.90;14.30;;;1.60;99.90;;;;;;5046679;28;20392;-79
2023/10/09 04:50:45;;;;;;;28.40;14.40;;;1.70;99.90;;;;;;5060379;28;20021;-80
2023/10/09 04:55:44;;;;;;;58.35;26.05;;;1.80;99.90;;;;;;5054594;28;20505;-81
2023/10/09 04:58:23;;;;;;;66.97;33.67;;;1.70;99.90;;;;;;5054693;28;20364;-81
2023/10/09 05:01:02;;;;;;;77.47;37.42;;;1.70;99.90;;;;;;5047701;28;21472;-81
2023/10/09 05:03:56;;;;;;;62.05;29.95;;;1.80;99.90;;;;;;5053596;28;20128;-81
2023/10/09 05:06:20;;;;;;;47.40;24.92;;;1.80;99.90;;;;;;5052500;28;20368;-81
2023/10/09 05:08:49;;;;;;;53.05;26.55;;;1.90;99.90;;;;;;5060197;28;20028;-79
2023/10/09 05:11:34;;;;;;;49.40;24.27;;;1.90;99.90;;;;;;5053262;28;20394;-79
2023/10/09 05:14:12;;;;;;;46.30;23.95;;;1.90;99.90;;;;;;5047380;28;20036;-81
2023/10/09 05:16:53;;;;;;;46.33;22.33;;;2.00;99.90;;;;;;5051200;28;20045;-81
2023/10/09 05:19:33;;;;;;;38.22;21.92;;;2.00;99.90;;;;;;5057564;28;20024;-79
2023/10/09 05:22:04;;;;;;;37.58;19.63;;;2.00;99.90;;;;;;5067495;28;20036;-78
2023/10/09 05:24:42;;;;;;;34.03;18.23;;;2.10;99.90;;;;;;5064123;28;20116;-81
2023/10/09 05:27:17;;;;;;;41.03;18.55;;;2.10;99.90;;;;;;5048851;28;20075;-79
2023/10/09 05:29:59;;;;;;;43.05;20.63;;;2.20;99.90;;;;;;5061137;28;20070;-79
2023/10/09 05:32:29;;;;;;;39.88;21.02;;;2.20;99.90;;;;;;5052134;28;20025;-81
2023/10/09 05:37:43;;;;;;;32.20;17.77;;;2.30;99.90;;;;;;5040875;28;20040;-79
2023/10/09 05:42:45;;;;;;;33.85;17.80;;;2.50;99.90;;;;;;5043972;28;20046;-79
2023/10/09 05:50:34;;;;;;;27.50;15.32;;;2.70;99.90;;;;;;5042044;28;20277;-79
2023/10/09 06:01:05;;;;;;;30.67;16.13;;;2.90;99.90;;;;;;5046848;28;20067;-79
2023/10/09 06:02:27;;;;;;;26.23;15.98;;;2.90;99.90;;;;;;5049037;28;20561;-81
2023/10/09 06:03:54;;;;;;;25.42;12.93;;;3.00;99.90;;;;;;5049372;28;20218;-80
2023/10/09 06:06:33;;;;;;;28.42;14.20;;;2.90;99.90;;;;;;5070960;28;20009;-81
2023/10/09 06:11:49;;;;;;;19.33;11.63;;;2.80;99.90;;;;;;5072428;28;20032;-79
2023/10/09 06:19:27;;;;;;;36.47;18.05;;;2.60;99.90;;;;;;5060414;28;20112;-79
2023/10/09 06:33:04;;;;;;;57.65;26.33;;;2.70;99.90;;;;;;5040597;28;20040;-79
2023/10/09 06:35:35;;;;;;;180.07;83.90;;;2.80;99.90;;;;;;5069986;28;20020;-79
2023/10/09 06:43:09;;;;;;;74.53;36.75;;;3.10;99.90;;;;;;5058927;28;20086;-79
2023/10/09 06:45:45;;;;;;;53.03;28.05;;;3.10;99.90;;;;;;5057239;28;20489;-80
2023/10/09 06:58:57;;;;;;;23.27;13.95;;;3.30;99.90;;;;;;5060673;28;20116;-82
2023/10/09 07:07:01;;;;;;;31.02;16.65;;;3.50;99.90;;;;;;5051797;28;20025;-83
2023/10/09 07:09:42;;;;;;;31.02;18.30;;;3.50;99.90;;;;;;5054482;28;20086;-83
2023/10/09 07:12:20;;;;;;;29.77;19.73;;;3.60;99.90;;;;;;5052355;28;20055;-83
2023/10/09 07:20:09;;;;;;;47.38;24.95;;;3.70;99.90;;;;;;5066563;28;20051;-82
2023/10/09 07:22:39;;;;;;;44.60;25.75;;;3.70;99.90;;;;;;5062355;28;20070;-79
2023/10/09 07:25:27;;;;;;;59.22;28.80;;;3.70;99.90;;;;;;5059542;28;20071;-80
2023/10/09 07:27:55;;;;;;;44.90;25.23;;;3.80;99.90;;;;;;5063300;28;20482;-82
2023/10/09 07:33:16;;;;;;;28.42;16.63;;;3.80;99.90;;;;;;5054067;28;20106;-80
2023/10/09 07:35:47;;;;;;;25.35;15.85;;;3.90;99.90;;;;;;5059983;28;20020;-82
2023/10/09 07:38:19;;;;;;;28.60;14.98;;;3.80;99.90;;;;;;5058164;28;20025;-79
2023/10/09 07:41:33;;;;;;;72.93;34.28;;;3.90;99.90;;;;;;5054933;28;20037;-82
2023/10/09 07:48:55;;;;;;;58.45;27.00;;;4.00;99.90;;;;;;5047798;28;20036;-82
2023/10/09 07:51:22;;;;;;;38.63;20.13;;;4.00;99.90;;;;;;5060815;28;20490;-79
2023/10/09 07:54:06;;;;;;;28.02;16.13;;;4.10;99.90;;;;;;5053811;28;20040;-79
2023/10/09 07:56:45;;;;;;;26.25;14.05;;;4.10;99.90;;;;;;5054278;28;20051;-82
2023/10/09 07:59:17;;;;;;;22.35;14.75;;;4.10;99.90;;;;;;5053717;28;20382;-82
2023/10/09 08:01:59;;;;;;;24.95;15.52;;;4.10;99.90;;;;;;5052942;28;20052;-82
2023/10/09 08:04:38;;;;;;;24.75;14.15;;;4.20;99.90;;;;;;5046567;28;20075;-79
2023/10/09 08:07:07;;;;;;;23.63;13.52;;;4.20;99.90;;;;;;5052246;28;20058;-79
2023/10/09 08:10:43;;;;;;;18.27;11.80;;;4.20;99.90;;;;;;5051722;28;20394;-82
2023/10/09 08:15:20;;;;;;;15.35;10.05;;;4.30;99.90;;;;;;5057392;28;20032;-82
2023/10/09 08:17:50;;;;;;;15.15;10.15;;;4.30;99.90;;;;;;5053370;28;20391;-82
2023/10/09 08:20:17;;;;;;;13.93;10.35;;;4.30;99.90;;;;;;5048790;28;20063;-80
2023/10/09 08:22:43;;;;;;;14.35;9.20;;;4.40;99.90;;;;;;5053956;28;20040;-80
2023/10/09 08:25:27;;;;;;;15.50;9.27;;;4.50;99.90;;;;;;5049761;28;20024;-82
2023/10/09 08:31:02;;;;;;;11.73;8.07;;;4.60;99.90;;;;;;5048055;28;20060;-79
2023/10/09 08:36:04;;;;;;;12.35;8.05;;;4.90;99.90;;;;;;5074303;28;20116;-83
2023/10/09 08:38:41;;;;;;;10.68;6.65;;;5.00;99.90;;;;;;5049119;28;20025;-83
2023/10/09 08:41:17;;;;;;;13.05;7.32;;;5.00;99.90;;;;;;5052475;28;20025;-80
2023/10/09 08:43:53;;;;;;;12.15;7.00;;;5.10;99.90;;;;;;5054647;28;20498;-79
2023/10/09 08:46:26;;;;;;;7.20;4.90;;;5.20;99.90;;;;;;5047650;28;20024;-82
2023/10/09 08:48:56;;;;;;;9.30;5.95;;;5.20;99.90;;;;;;5061274;28;20029;-79
2023/10/09 08:51:23;;;;;;;5.43;4.35;;;5.30;99.90;;;;;;5051929;28;20059;-80
2023/10/09 08:53:49;;;;;;;8.43;4.22;;;5.40;99.90;;;;;;5054356;28;20121;-83
2023/10/09 08:56:22;;;;;;;7.75;3.50;;;5.50;99.90;;;;;;5053210;28;20486;-79
2023/10/09 08:59:01;;;;;;;;;;;5.50;99.90;;;;;;5054976;28;20029;-83
2023/10/09 09:01:31;;;;;;;2.65;2.10;;;5.60;99.90;;;;;;5057526;28;20003;-82
2023/10/09 09:03:57;;;;;;;2.95;2.40;;;5.60;99.90;;;;;;5053411;28;20032;-79
2023/10/09 09:06:23;;;;;;;3.88;2.35;;;5.60;99.90;;;;;;5053781;28;20017;-77
2023/10/09 09:08:54;;;;;;;3.63;2.22;;;5.70;99.90;;;;;;5050826;28;20017;-77
2023/10/09 09:11:24;;;;;;;3.38;2.30;;;5.70;99.90;;;;;;5059314;28;20017;-77
2023/10/09 09:14:04;;;;;;;5.75;3.08;;;5.80;99.90;;;;;;5050246;28;20041;-80
2023/10/09 09:16:31;;;;;;;5.35;3.20;;;5.80;99.90;;;;;;5055061;28;20021;-77
2023/10/09 09:19:02;;;;;;;4.75;3.38;;;5.90;99.90;;;;;;5054336;28;20020;-77
2023/10/09 09:21:29;;;;;;;3.83;2.97;;;6.00;99.90;;;;;;5053450;28;20099;-79
2023/10/09 09:23:57;;;;;;;4.80;3.10;;;6.00;99.90;;;;;;5054840;28;20021;-83
2023/10/09 09:26:44;;;;;;;7.57;3.85;;;6.00;99.90;;;;;;5055064;28;20513;-81
2023/10/09 09:29:11;;;;;;;16.63;9.18;;;6.10;99.90;;;;;;5053687;28;20028;-80
2023/10/09 09:31:41;;;;;;;11.25;6.80;;;6.10;99.90;;;;;;5051894;28;20037;-80
2023/10/09 09:34:16;;;;;;;6.93;5.18;;;6.10;99.90;;;;;;5053657;28;20122;-81
2023/10/09 09:36:57;;;;;;;12.32;7.65;;;6.10;99.90;;;;;;5054033;28;20027;-80
2023/10/09 09:39:29;;;;;;;6.50;4.10;;;6.10;99.90;;;;;;5052485;28;20029;-80
2023/10/09 09:42:07;;;;;;;6.60;4.45;;;6.10;99.90;;;;;;5054693;28;20020;-81
2023/10/09 09:44:43;;;;;;;5.80;4.45;;;6.20;99.90;;;;;;5042604;28;20100;-77
2023/10/09 09:47:13;;;;;;;6.35;4.03;;;6.20;99.90;;;;;;5049922;28;20043;-77
2023/10/09 09:49:43;;;;;;;3.92;2.80;;;6.30;99.90;;;;;;5054195;28;20017;-81
2023/10/09 09:52:12;;;;;;;8.27;4.75;;;6.30;99.90;;;;;;5057937;28;20103;-77
2023/10/09 09:54:39;;;;;;;9.50;3.15;;;6.30;99.90;;;;;;5053582;28;20116;-81
2023/10/09 09:57:10;;;;;;;4.75;2.80;;;6.30;99.90;;;;;;5053894;28;20037;-77
2023/10/09 09:59:52;;;;;;;3.50;2.70;;;6.20;99.90;;;;;;5052155;28;20048;-80
2023/10/09 10:02:28;;;;;;;5.00;2.20;;;6.20;99.90;;;;;;5055543;28;20017;-77
2023/10/09 10:04:58;;;;;;;4.75;2.30;;;6.20;99.90;;;;;;5044221;28;20426;-77
2023/10/09 10:07:28;;;;;;;2.92;2.28;;;6.20;99.90;;;;;;5048242;28;20020;-79
2023/10/09 10:09:57;;;;;;;4.22;2.72;;;6.20;99.90;;;;;;5052354;28;20068;-78
2023/10/09 10:12:48;;;;;;;3.38;2.50;;;6.30;99.90;;;;;;5053439;28;20079;-81
2023/10/09 10:15:16;;;;;;;19.55;15.85;;;6.30;99.90;;;;;;5052223;28;20028;-78
2023/10/09 10:17:58;;;;;;;3.55;2.10;;;6.30;99.90;;;;;;5058251;28;20087;-78
2023/10/09 10:20:25;;;;;;;6.75;2.35;;;6.30;99.90;;;;;;5050765;28;20041;-78
2023/10/09 10:23:12;;;;;;;2.95;2.05;;;6.40;99.90;;;;;;5053456;28;20096;-78
2023/10/09 10:26:00;;;;;;;2.58;2.08;;;6.40;99.90;;;;;;5051188;28;20446;-78
2023/10/09 10:28:44;;;;;;;3.90;2.13;;;6.40;99.90;;;;;;5055614;28;20024;-79
2023/10/09 10:31:13;;;;;;;2.65;1.92;;;6.60;99.90;;;;;;5049526;28;20122;-78
2023/10/09 10:33:58;;;;;;;2.05;1.73;;;6.50;99.90;;;;;;5071393;28;20080;-78
2023/10/09 10:36:28;;;;;;;3.65;1.65;;;6.50;99.90;;;;;;5070994;28;20029;-81
2023/10/09 10:39:04;;;;;;;3.63;2.17;;;6.40;99.90;;;;;;5070361;28;20028;-82
2023/10/09 10:41:35;;;;;;;2.60;2.38;;;6.40;99.90;;;;;;5070059;28;20033;-81
2023/10/09 10:44:33;;;;;;;2.53;2.20;;;6.30;99.90;;;;;;5074105;28;20062;-81
2023/10/09 10:46:53;;;;;;;2.85;2.15;;;6.30;99.90;;;;;;5074309;28;20032;-78
2023/10/09 10:49:23;;;;;;;2.33;1.88;;;6.30;99.90;;;;;;5073927;28;20127;-78
2023/10/09 10:51:53;;;;;;;4.30;2.17;;;6.30;99.90;;;;;;5074260;28;20385;-81
2023/10/09 10:54:45;;;;;;;2.97;2.22;;;6.20;99.90;;;;;;5057171;28;20040;-82
2023/10/09 10:57:36;;;;;;;2.88;2.20;;;6.20;99.90;;;;;;5041335;28;20104;-78
2023/10/09 11:03:13;;;;;;;2.28;2.00;;;6.10;99.90;;;;;;5074521;28;20024;-82
2023/10/09 11:05:42;;;;;;;4.10;2.15;;;6.10;99.90;;;;;;5074178;28;20025;-83
2023/10/09 11:08:11;;;;;;;2.97;1.83;;;6.10;99.90;;;;;;5061219;28;20482;-79
2023/10/09 11:10:49;;;;;;;4.18;2.88;;;6.10;99.90;;;;;;5067248;28;20020;-82
2023/10/09 11:13:30;;;;;;;3.65;2.00;;;6.20;99.90;;;;;;5054778;28;20041;-82
2023/10/09 11:16:14;;;;;;;3.45;2.10;;;6.10;99.90;;;;;;5071231;28;20023;-83
2023/10/09 11:18:45;;;;;;;3.20;2.00;;;6.10;99.90;;;;;;5054245;28;20108;-79
2023/10/09 11:23:57;;;;;;;1.98;1.77;;;6.20;99.90;;;;;;5073774;28;20048;-83
2023/10/09 11:26:28;;;;;;;2.38;2.00;;;6.20;99.90;;;;;;5074691;28;20013;-83
2023/10/09 11:32:07;;;;;;;2.85;2.60;;;6.20;99.90;;;;;;5069900;28;20059;-78
2023/10/09 11:34:37;;;;;;;3.67;2.30;;;6.20;99.90;;;;;;5073970;28;20468;-83
2023/10/09 11:37:11;;;;;;;3.28;2.25;;;6.30;99.90;;;;;;5070507;28;20443;-79
2023/10/09 11:39:50;;;;;;;3.42;2.40;;;6.30;99.90;;;;;;5057314;28;20031;-79
2023/10/09 11:42:35;;;;;;;2.30;2.00;;;6.30;99.90;;;;;;5042714;28;20032;-83
2023/10/09 11:45:23;;;;;;;3.20;2.55;;;6.20;99.90;;;;;;5054032;28;20033;-83
2023/10/09 11:48:05;;;;;;;3.13;2.28;;;6.20;99.90;;;;;;5051046;28;20115;-79
2023/10/09 11:50:43;;;;;;;3.13;2.13;;;6.20;99.90;;;;;;5060035;28;20482;-79
2023/10/09 11:53:19;;;;;;;2.58;2.33;;;6.30;99.90;;;;;;5054469;28;20440;-83
2023/10/09 11:55:49;;;;;;;3.65;2.78;;;6.30;99.90;;;;;;5055861;28;20103;-79
2023/10/09 11:58:24;;;;;;;3.42;2.70;;;6.30;99.90;;;;;;5055984;28;20025;-83
2023/10/09 12:00:51;;;;;;;5.38;2.50;;;6.30;99.90;;;;;;5054230;28;20391;-82
2023/10/09 12:03:21;;;;;;;4.20;2.90;;;6.20;99.90;;;;;;5055483;28;20017;-83
2023/10/09 12:05:47;;;;;;;3.28;2.42;;;6.20;99.90;;;;;;5056401;28;20017;-83
2023/10/09 12:08:15;;;;;;;4.47;3.08;;;6.20;99.90;;;;;;5062561;28;20036;-82
2023/10/09 12:10:42;;;;;;;4.28;3.00;;;6.20;99.90;;;;;;5056579;28;20409;-83
2023/10/09 12:13:07;;;;;;;2.95;2.75;;;6.20;99.90;;;;;;5055535;28;20029;-79
2023/10/09 12:15:39;;;;;;;3.47;2.88;;;6.30;99.90;;;;;;5054872;28;20101;-79
2023/10/09 12:18:14;;;;;;;6.50;4.18;;;6.30;99.90;;;;;;5049966;28;20013;-79
2023/10/09 12:20:49;;;;;;;9.90;4.43;;;6.30;99.90;;;;;;5054131;28;20024;-82
2023/10/09 12:23:15;;;;;;;3.53;3.00;;;6.30;99.90;;;;;;5054501;28;20036;-82
2023/10/09 12:25:44;;;;;;;4.22;3.10;;;6.30;99.90;;;;;;5056202;28;20017;-82
2023/10/09 12:28:12;;;;;;;3.72;2.35;;;6.30;99.90;;;;;;5054332;28;20100;-79
2023/10/09 12:30:41;;;;;;;3.03;2.30;;;6.30;99.90;;;;;;5059238;28;20047;-82
2023/10/09 12:33:07;;;;;;;2.67;2.15;;;6.30;99.90;;;;;;5072779;28;20067;-79
2023/10/09 12:35:37;;;;;;;3.47;2.75;;;6.30;99.90;;;;;;5073585;28;20020;-79
2023/10/09 12:38:08;;;;;;;5.18;3.45;;;6.30;99.90;;;;;;5072531;28;20024;-83
2023/10/09 12:40:35;;;;;;;5.45;3.85;;;6.40;99.90;;;;;;5072669;28;20020;-79
2023/10/09 12:43:01;;;;;;;4.97;3.05;;;6.30;99.90;;;;;;5073940;28;20025;-79
2023/10/09 12:45:27;;;;;;;3.88;3.10;;;6.30;99.90;;;;;;5052980;28;20059;-83
2023/10/09 12:47:59;;;;;;;5.47;3.60;;;6.30;99.90;;;;;;5049127;28;20067;-79
2023/10/09 12:50:28;;;;;;;5.93;3.60;;;6.30;99.90;;;;;;5059126;28;20037;-83
2023/10/09 12:52:56;;;;;;;7.80;4.45;;;6.20;99.90;;;;;;5049571;28;20064;-83
2023/10/09 12:55:22;;;;;;;6.57;4.28;;;6.20;99.90;;;;;;5054279;28;20479;-83
2023/10/09 12:57:48;;;;;;;6.82;3.50;;;6.20;99.90;;;;;;5054023;28;20079;-79
2023/10/09 13:00:25;;;;;;;8.65;4.72;;;6.10;99.90;;;;;;5052954;28;20021;-82
2023/10/09 13:02:51;;;;;;;4.63;3.45;;;6.20;99.90;;;;;;5053352;28;21529;-83
2023/10/09 13:05:26;;;;;;;4.45;3.78;;;6.20;99.90;;;;;;5052078;28;20021;-83
2023/10/09 13:07:53;;;;;;;5.15;3.63;;;6.20;99.90;;;;;;5054657;28;20021;-83
2023/10/09 13:10:19;;;;;;;4.50;3.83;;;6.20;99.90;;;;;;5061456;28;20020;-78
2023/10/09 13:12:45;;;;;;;4.25;3.72;;;6.20;99.90;;;;;;5056264;28;20044;-79
2023/10/09 13:15:11;;;;;;;4.13;3.35;;;6.20;99.90;;;;;;5053104;28;20013;-79
2023/10/09 13:17:37;;;;;;;6.38;4.05;;;6.20;99.90;;;;;;5054222;28;20386;-79
2023/10/09 13:20:12;;;;;;;4.80;3.75;;;6.30;99.90;;;;;;5056170;28;20082;-79
2023/10/09 13:22:42;;;;;;;5.35;4.03;;;6.30;99.90;;;;;;5054174;28;20585;-79
2023/10/09 13:25:15;;;;;;;4.47;3.22;;;6.30;99.90;;;;;;5053480;28;20497;-79
2023/10/09 13:27:50;;;;;;;6.90;4.53;;;6.30;99.90;;;;;;5055118;28;20501;-79
2023/10/09 13:30:21;;;;;;;5.50;4.07;;;6.30;99.90;;;;;;5058279;28;20053;-83
2023/10/09 13:32:49;;;;;;;5.28;4.15;;;6.30;99.90;;;;;;5071871;28;20533;-82
2023/10/09 13:35:17;;;;;;;6.13;5.22;;;6.30;99.90;;;;;;5057905;28;20115;-79
2023/10/09 13:37:44;;;;;;;4.38;3.38;;;6.20;99.90;;;;;;5073501;28;20032;-83
2023/10/09 13:40:11;;;;;;;4.03;3.10;;;6.10;99.90;;;;;;5073144;28;20035;-79
2023/10/09 13:42:37;;;;;;;5.70;2.97;;;6.10;99.90;;;;;;5063508;28;20021;-83
2023/10/09 13:45:15;;;;;;;4.03;3.30;;;6.10;99.90;;;;;;5068222;28;20017;-83
2023/10/09 13:47:44;;;;;;;6.35;3.95;;;6.10;99.90;;;;;;5072562;28;20526;-79
2023/10/09 13:50:10;;;;;;;5.38;4.00;;;6.10;99.90;;;;;;5070703;28;20016;-83
2023/10/09 13:52:39;;;;;;;4.63;4.20;;;6.00;99.90;;;;;;5072304;28;20046;-83
2023/10/09 13:55:15;;;;;;;380.10;195.77;;;6.10;99.90;;;;;;5070230;28;20024;-83
2023/10/09 13:57:45;;;;;;;34.50;19.55;;;6.10;99.90;;;;;;5050873;28;20113;-83
2023/10/09 14:00:17;;;;;;;8.95;6.90;;;6.10;99.90;;;;;;5072370;28;20086;-79
2023/10/09 14:02:42;;;;;;;10.10;7.47;;;6.10;99.90;;;;;;5066967;28;20071;-84
2023/10/09 14:05:08;;;;;;;8.05;4.40;;;6.10;99.90;;;;;;5055078;28;20025;-83
2023/10/09 14:07:34;;;;;;;6.63;4.35;;;6.10;99.90;;;;;;5066416;28;20032;-83
2023/10/09 14:12:56;;;;;;;5.53;4.60;;;6.10;99.90;;;;;;5070946;28;20037;-79
2023/10/09 14:15:23;;;;;;;9.00;8.05;;;6.10;99.90;;;;;;5069210;28;20027;-79
2023/10/09 14:17:55;;;;;;;6.15;5.25;;;6.10;99.90;;;;;;5069832;28;20490;-83
2023/10/09 14:20:31;;;;;;;7.13;5.22;;;6.10;99.90;;;;;;5048254;28;20021;-79
2023/10/09 14:23:06;;;;;;;9.63;7.03;;;6.20;99.90;;;;;;5070009;28;20020;-79
2023/10/09 14:25:39;;;;;;;40.58;27.15;;;6.20;99.90;;;;;;5068326;28;20047;-79
2023/10/09 14:28:09;;;;;;;34.20;23.73;;;6.20;99.90;;;;;;5058514;28;20070;-80
2023/10/09 14:30:41;;;;;;;12.48;8.88;;;6.20;99.90;;;;;;5051166;28;20406;-84
2023/10/09 14:33:12;;;;;;;12.07;8.82;;;6.20;99.90;;;;;;5062952;28;20067;-84
2023/10/09 14:35:41;;;;;;;10.30;5.97;;;6.20;99.90;;;;;;5061758;28;20055;-79
2023/10/09 14:38:14;;;;;;;5.50;4.95;;;6.20;99.90;;;;;;5047560;28;20057;-79
2023/10/09 14:40:44;;;;;;;926.72;420.73;;;6.20;99.90;;;;;;5053846;28;20024;-83
2023/10/09 14:43:21;;;;;;;595.88;252.38;;;6.20;99.90;;;;;;5070595;28;20523;-83
2023/10/09 14:45:49;;;;;;;485.05;181.32;;;6.20;99.90;;;;;;5071286;28;20108;-80
2023/10/09 14:48:18;;;;;;;148.32;50.10;;;6.20;99.90;;;;;;5065552;28;20186;-79
2023/10/09 14:50:53;;;;;;;272.48;89.38;;;6.10;99.90;;;;;;5059485;28;20048;-83
2023/10/09 14:53:20;;;;;;;531.25;223.65;;;6.10;99.90;;;;;;5067633;28;20166;-80
2023/10/09 14:55:47;;;;;;;117.75;47.78;;;6.10;99.90;;;;;;5070124;28;20019;-79
2023/10/09 14:58:13;;;;;;;358.65;120.93;;;6.10;99.90;;;;;;5069731;28;20497;-79
2023/10/09 15:00:46;;;;;;;167.38;49.15;;;6.10;99.90;;;;;;5070717;28;20070;-79
2023/10/09 15:03:14;;;;;;;218.13;75.43;;;6.10;99.90;;;;;;5050379;28;20021;-84
2023/10/09 15:05:43;;;;;;;248.43;101.70;;;6.10;99.90;;;;;;5046968;28;20454;-80
2023/10/09 15:08:12;;;;;;;103.20;47.15;;;6.10;99.90;;;;;;5052515;28;20091;-80
2023/10/09 15:10:56;;;;;;;68.20;28.70;;;6.10;99.90;;;;;;5039385;28;20479;-83
2023/10/09 15:13:27;;;;;;;144.48;40.55;;;6.20;99.90;;;;;;5069984;28;20035;-84
2023/10/09 15:15:54;;;;;;;49.75;19.73;;;6.20;99.90;;;;;;5070192;28;20013;-78
2023/10/09 15:18:21;;;;;;;40.78;20.58;;;6.20;99.90;;;;;;5064088;28;20056;-82
2023/10/09 15:20:48;;;;;;;55.90;22.40;;;6.20;99.90;;;;;;5051195;28;20032;-80
2023/10/09 15:23:14;;;;;;;22.20;9.50;;;6.20;99.90;;;;;;5061642;28;20100;-80
2023/10/09 15:25:44;;;;;;;13.57;7.30;;;6.20;99.90;;;;;;5042019;28;20108;-80